Time;durP1;ratioP1;P1;durP2;ratioP2;P2;SDS_P1;SDS_P2;PMS_P1;PMS_P2;Temp;Humidity;BMP_temperature;BMP_pressure;BME280_temperature;BME280_humidity;BME280_pressure;Samples;Min_cycle;Max_cycle;Signal;HPM_P1;HPM_P2
2023/03/06 00:00:07;;;;;;;14.17;10.80;;;4.80;99.90;;;;;;5073064;28;20465;-58
2023/03/06 00:02:34;;;;;;;16.87;11.13;;;4.80;99.90;;;;;;5073068;28;20449;-58
2023/03/06 00:05:01;;;;;;;19.60;11.73;;;4.80;99.90;;;;;;5072774;28;21013;-58
2023/03/06 00:07:29;;;;;;;15.77;11.03;;;4.80;99.90;;;;;;5073119;28;20840;-58
2023/03/06 00:09:55;;;;;;;17.93;10.90;;;4.80;99.90;;;;;;5072808;28;20974;-58
2023/03/06 00:12:22;;;;;;;18.30;12.13;;;4.90;99.90;;;;;;5072795;28;20452;-57
2023/03/06 00:14:49;;;;;;;15.40;11.07;;;4.90;99.90;;;;;;5072989;28;20494;-58
2023/03/06 00:17:15;;;;;;;19.20;11.90;;;4.90;99.90;;;;;;5073931;28;20448;-58
2023/03/06 00:19:42;;;;;;;17.60;11.27;;;4.80;99.90;;;;;;5076781;28;20835;-58
2023/03/06 00:22:13;;;;;;;18.50;12.63;;;4.80;99.90;;;;;;5076450;28;20990;-58
2023/03/06 00:24:42;;;;;;;18.63;10.77;;;4.70;99.90;;;;;;5076760;28;20473;-58
2023/03/06 00:27:09;;;;;;;16.47;11.50;;;4.70;99.90;;;;;;5076717;28;20449;-58
2023/03/06 00:29:36;;;;;;;16.40;11.90;;;4.70;99.90;;;;;;5076645;28;20514;-58
2023/03/06 00:32:03;;;;;;;22.27;14.13;;;4.60;99.90;;;;;;5076301;28;21021;-58
2023/03/06 00:34:30;;;;;;;21.60;14.00;;;4.60;99.90;;;;;;5076243;28;20942;-58
2023/03/06 00:36:56;;;;;;;17.70;12.80;;;4.60;99.90;;;;;;5076546;28;20467;-58
2023/03/06 00:39:23;;;;;;;17.53;12.63;;;4.60;99.90;;;;;;5077152;28;20475;-58
2023/03/06 00:41:51;;;;;;;23.47;13.17;;;4.50;99.90;;;;;;5076166;28;20856;-58
2023/03/06 00:44:18;;;;;;;17.13;12.10;;;4.50;99.90;;;;;;5076359;28;20451;-58
2023/03/06 00:46:44;;;;;;;22.70;13.67;;;4.50;99.90;;;;;;5076287;28;20484;-57
2023/03/06 00:49:11;;;;;;;18.33;13.53;;;4.60;99.90;;;;;;5076326;28;20448;-58
2023/03/06 00:51:38;;;;;;;20.40;13.87;;;4.60;99.90;;;;;;5076002;28;21019;-57
2023/03/06 00:54:04;;;;;;;17.47;13.00;;;4.60;99.90;;;;;;5076249;28;20441;-57
2023/03/06 00:56:31;;;;;;;22.10;13.93;;;4.60;99.90;;;;;;5076179;28;20498;-57
2023/03/06 00:58:59;;;;;;;22.37;15.33;;;4.60;99.90;;;;;;5076173;28;20463;-57
2023/03/06 01:01:26;;;;;;;23.20;15.83;;;4.50;99.90;;;;;;5075877;28;21001;-57
2023/03/06 01:03:52;;;;;;;24.53;15.70;;;4.50;99.90;;;;;;5076009;28;20449;-58
2023/03/06 01:06:19;;;;;;;20.63;14.53;;;4.50;99.90;;;;;;5075956;28;20488;-58
2023/03/06 01:08:46;;;;;;;24.37;15.90;;;4.50;99.90;;;;;;5075820;28;20451;-58
2023/03/06 01:11:12;;;;;;;25.43;15.27;;;4.40;99.90;;;;;;5075889;28;20522;-58
2023/03/06 01:13:39;;;;;;;21.50;15.30;;;4.40;99.90;;;;;;5075887;28;20449;-57
2023/03/06 01:16:10;;;;;;;22.97;14.50;;;4.40;99.90;;;;;;5075573;28;20942;-57
2023/03/06 01:18:37;;;;;;;23.10;16.37;;;4.40;99.90;;;;;;5075695;28;20429;-57
2023/03/06 01:21:05;;;;;;;25.73;16.37;;;4.30;99.90;;;;;;5075687;28;20469;-58
2023/03/06 01:23:32;;;;;;;19.30;14.80;;;4.30;99.90;;;;;;5075753;28;20444;-58
2023/03/06 01:26:02;;;;;;;21.93;15.70;;;4.40;99.90;;;;;;5075581;28;20484;-57
2023/03/06 01:28:29;;;;;;;26.50;16.77;;;4.30;99.90;;;;;;5074699;28;20452;-57
2023/03/06 01:30:56;;;;;;;25.70;17.27;;;4.20;99.90;;;;;;5074991;28;20981;-58
2023/03/06 01:33:24;;;;;;;20.57;16.20;;;4.20;99.90;;;;;;5075565;28;20812;-57
2023/03/06 01:35:51;;;;;;;20.90;15.00;;;4.20;99.90;;;;;;5075498;28;20814;-58
2023/03/06 01:38:17;;;;;;;22.10;16.50;;;4.20;99.90;;;;;;5075422;28;20488;-58
2023/03/06 01:40:44;;;;;;;22.27;15.60;;;4.20;99.90;;;;;;5075512;28;20461;-58
2023/03/06 01:43:24;;;;;;;25.03;16.70;;;4.20;99.90;;;;;;5075547;28;20475;-58
2023/03/06 01:46:33;;;;;;;23.50;17.07;;;4.20;99.90;;;;;;5075217;28;20472;-58
2023/03/06 01:49:06;;;;;;;24.00;15.57;;;4.30;99.90;;;;;;5075014;28;20911;-58
2023/03/06 01:51:35;;;;;;;21.03;15.43;;;4.20;99.90;;;;;;5075383;28;20482;-58
2023/03/06 01:54:07;;;;;;;26.80;15.03;;;4.20;99.90;;;;;;5075939;28;20441;-58
2023/03/06 01:56:34;;;;;;;22.83;16.10;;;4.30;99.90;;;;;;5076646;28;20537;-58
2023/03/06 01:59:02;;;;;;;21.40;14.13;;;4.30;99.90;;;;;;5075000;28;20448;-58
2023/03/06 02:01:30;;;;;;;23.77;16.53;;;4.30;99.90;;;;;;5075710;28;20467;-58
2023/03/06 02:03:56;;;;;;;23.13;15.80;;;4.30;99.90;;;;;;5074798;28;20934;-58
2023/03/06 02:06:25;;;;;;;23.20;16.23;;;4.40;99.90;;;;;;5075102;28;20853;-58
2023/03/06 02:08:52;;;;;;;21.93;15.33;;;4.50;99.90;;;;;;5074383;28;20824;-58
2023/03/06 02:11:21;;;;;;;23.43;16.27;;;4.50;99.90;;;;;;5074836;28;20537;-58
2023/03/06 02:13:49;;;;;;;23.87;16.33;;;4.50;99.90;;;;;;5074800;28;20451;-57
2023/03/06 02:16:17;;;;;;;21.53;15.40;;;4.50;99.90;;;;;;5074606;28;20437;-58
2023/03/06 02:18:46;;;;;;;24.47;16.77;;;4.50;99.90;;;;;;5074723;28;20481;-57
2023/03/06 02:21:20;;;;;;;27.63;16.80;;;4.40;99.90;;;;;;5074520;28;20530;-58
2023/03/06 02:23:59;;;;;;;23.70;16.43;;;4.40;99.90;;;;;;5074482;28;20428;-58
2023/03/06 02:26:28;;;;;;;30.03;20.00;;;4.40;99.90;;;;;;5074354;28;20472;-57
2023/03/06 02:28:57;;;;;;;28.00;17.70;;;4.40;99.90;;;;;;5073990;28;20479;-58
2023/03/06 02:31:26;;;;;;;25.87;17.97;;;4.40;99.90;;;;;;5074233;28;20490;-58
2023/03/06 02:34:06;;;;;;;21.50;15.80;;;4.40;99.90;;;;;;5074282;28;20452;-58
2023/03/06 02:36:37;;;;;;;24.50;18.40;;;4.40;99.90;;;;;;5074327;28;20464;-58
2023/03/06 02:39:05;;;;;;;25.87;17.87;;;4.30;99.90;;;;;;5074314;28;20800;-58
2023/03/06 02:41:33;;;;;;;26.83;17.47;;;4.40;99.90;;;;;;5073896;28;20456;-58
2023/03/06 02:43:59;;;;;;;24.13;18.67;;;4.50;99.90;;;;;;5073936;28;20451;-57
2023/03/06 02:46:26;;;;;;;29.00;18.87;;;4.50;99.90;;;;;;5074013;28;20476;-58
2023/03/06 02:48:53;;;;;;;26.03;17.93;;;4.50;99.90;;;;;;5074021;28;20850;-57
2023/03/06 02:51:19;;;;;;;27.67;18.27;;;4.50;99.90;;;;;;5073978;28;20477;-57
2023/03/06 02:53:46;;;;;;;28.40;19.13;;;4.50;99.90;;;;;;5073920;28;20498;-58
2023/03/06 02:56:13;;;;;;;28.30;18.67;;;4.50;99.90;;;;;;5073685;28;20444;-58
2023/03/06 02:58:42;;;;;;;30.53;18.13;;;4.50;99.90;;;;;;5073805;28;20494;-58
2023/03/06 03:01:09;;;;;;;22.93;17.60;;;4.50;99.90;;;;;;5073828;28;20468;-58
2023/03/06 03:03:35;;;;;;;26.60;17.80;;;4.50;99.90;;;;;;5073811;28;20891;-58
2023/03/06 03:06:04;;;;;;;24.53;17.90;;;4.50;99.90;;;;;;5073410;28;20477;-57
2023/03/06 03:08:31;;;;;;;32.30;20.40;;;4.40;99.90;;;;;;5073409;28;20865;-57
2023/03/06 03:10:58;;;;;;;26.50;18.60;;;4.40;99.90;;;;;;5073152;28;20495;-58
2023/03/06 03:13:24;;;;;;;28.27;19.20;;;4.40;99.90;;;;;;5073374;28;20835;-58
2023/03/06 03:16:00;;;;;;;34.90;18.23;;;4.40;99.90;;;;;;5073577;28;20444;-58
2023/03/06 03:18:27;;;;;;;27.77;19.00;;;4.30;99.90;;;;;;5073516;28;20452;-58
2023/03/06 03:20:54;;;;;;;31.70;20.27;;;4.40;99.90;;;;;;5073439;28;20468;-58
2023/03/06 03:23:21;;;;;;;29.20;19.07;;;4.30;99.90;;;;;;5073237;28;20954;-58
2023/03/06 03:25:48;;;;;;;26.83;19.20;;;4.40;99.90;;;;;;5073088;28;21036;-58
2023/03/06 03:28:14;;;;;;;26.67;18.53;;;4.40;99.90;;;;;;5073488;28;20499;-58
2023/03/06 03:30:42;;;;;;;34.10;22.17;;;4.40;99.90;;;;;;5073434;28;20481;-58
2023/03/06 03:33:10;;;;;;;38.10;21.60;;;4.30;99.90;;;;;;5073442;28;20523;-58
2023/03/06 03:35:37;;;;;;;28.17;18.50;;;4.30;99.90;;;;;;5073014;28;21029;-57
2023/03/06 03:38:04;;;;;;;31.10;20.60;;;4.30;99.90;;;;;;5073365;28;20452;-58
2023/03/06 03:40:31;;;;;;;30.43;20.80;;;4.40;99.90;;;;;;5073337;28;20613;-58
2023/03/06 03:42:57;;;;;;;30.00;20.50;;;4.40;99.90;;;;;;5073285;28;20459;-58
2023/03/06 03:45:24;;;;;;;32.03;19.60;;;4.40;99.90;;;;;;5073274;28;20452;-57
2023/03/06 03:47:51;;;;;;;29.10;20.37;;;4.40;99.90;;;;;;5072903;28;21022;-57
2023/03/06 03:50:19;;;;;;;33.80;22.93;;;4.40;99.90;;;;;;5073084;28;20468;-58
2023/03/06 03:52:45;;;;;;;38.37;23.57;;;4.50;99.90;;;;;;5075195;28;20470;-58
2023/03/06 03:55:12;;;;;;;36.17;22.70;;;4.40;99.90;;;;;;5076999;28;20957;-58
2023/03/06 03:57:39;;;;;;;32.73;21.50;;;4.50;99.90;;;;;;5076974;28;20937;-58
2023/03/06 04:00:07;;;;;;;36.97;22.53;;;4.50;99.90;;;;;;5076706;28;20890;-58
2023/03/06 04:02:33;;;;;;;35.27;23.50;;;4.50;99.90;;;;;;5077272;28;20445;-58
2023/03/06 04:05:00;;;;;;;35.50;23.00;;;4.50;99.90;;;;;;5077071;28;20455;-58
2023/03/06 04:07:28;;;;;;;38.10;24.47;;;4.50;99.90;;;;;;5077113;28;20876;-58
2023/03/06 04:09:55;;;;;;;39.07;23.70;;;4.50;99.90;;;;;;5076761;28;20475;-58
2023/03/06 04:12:21;;;;;;;38.60;24.40;;;4.50;99.90;;;;;;5077064;28;20453;-57
2023/03/06 04:14:48;;;;;;;43.80;24.77;;;4.50;99.90;;;;;;5077017;28;20460;-57
2023/03/06 04:17:15;;;;;;;40.60;24.40;;;4.50;99.90;;;;;;5076875;28;20455;-57
2023/03/06 04:19:41;;;;;;;35.83;23.97;;;4.50;99.90;;;;;;5076780;28;20468;-57
2023/03/06 04:22:08;;;;;;;38.20;24.00;;;4.50;99.90;;;;;;5076521;28;20938;-57
2023/03/06 04:24:36;;;;;;;37.70;25.03;;;4.60;99.90;;;;;;5076716;28;20445;-57
2023/03/06 04:27:03;;;;;;;36.03;22.77;;;4.60;99.90;;;;;;5076701;28;20480;-57
2023/03/06 04:29:29;;;;;;;36.10;22.40;;;4.50;99.90;;;;;;5076607;28;20476;-57
2023/03/06 04:31:56;;;;;;;41.20;23.10;;;4.50;99.90;;;;;;5076631;28;20456;-58
2023/03/06 04:34:23;;;;;;;39.47;23.70;;;4.40;99.90;;;;;;5076388;28;20448;-58
2023/03/06 04:36:49;;;;;;;42.73;25.00;;;4.40;99.90;;;;;;5076552;28;20440;-58
2023/03/06 04:39:16;;;;;;;34.07;21.70;;;4.40;99.90;;;;;;5076436;28;20448;-58
2023/03/06 04:41:45;;;;;;;35.43;24.00;;;4.50;99.90;;;;;;5076483;28;20440;-58
2023/03/06 04:44:11;;;;;;;38.33;22.97;;;4.50;99.90;;;;;;5076404;28;20459;-58
2023/03/06 04:46:38;;;;;;;39.20;22.80;;;4.50;99.90;;;;;;5076423;28;20480;-58
2023/03/06 04:49:05;;;;;;;35.37;22.83;;;4.50;99.90;;;;;;5077343;28;20452;-58
2023/03/06 04:51:31;;;;;;;36.17;21.77;;;4.50;99.90;;;;;;5077186;28;20443;-58
2023/03/06 04:53:58;;;;;;;36.47;23.43;;;4.50;99.90;;;;;;5076894;28;20449;-57
2023/03/06 04:56:25;;;;;;;36.87;24.67;;;4.40;99.90;;;;;;5076935;28;20478;-58
2023/03/06 04:58:53;;;;;;;40.53;25.13;;;4.40;99.90;;;;;;5076292;28;20440;-58
2023/03/06 05:01:20;;;;;;;42.97;24.70;;;4.40;99.90;;;;;;5076302;28;20671;-58
2023/03/06 05:03:46;;;;;;;49.33;25.13;;;4.40;99.90;;;;;;5076011;28;20444;-58
2023/03/06 05:06:13;;;;;;;40.60;25.33;;;4.40;99.90;;;;;;5075757;28;21005;-58
2023/03/06 05:08:40;;;;;;;41.57;24.40;;;4.50;99.90;;;;;;5076054;28;20447;-58
2023/03/06 05:11:06;;;;;;;38.73;25.10;;;4.50;99.90;;;;;;5075994;28;21009;-57
2023/03/06 05:13:33;;;;;;;36.70;23.27;;;4.60;99.90;;;;;;5075896;28;20452;-57
2023/03/06 05:16:06;;;;;;;42.97;25.40;;;4.60;99.90;;;;;;5075928;28;20456;-57
2023/03/06 05:18:33;;;;;;;40.23;25.77;;;4.60;99.90;;;;;;5075640;28;20938;-57
2023/03/06 05:21:00;;;;;;;39.90;24.63;;;4.60;99.90;;;;;;5075877;28;20480;-57
2023/03/06 05:23:27;;;;;;;39.70;24.90;;;4.60;99.90;;;;;;5075776;28;20448;-57
2023/03/06 05:25:53;;;;;;;39.90;24.27;;;4.60;99.90;;;;;;5075579;28;20444;-57
2023/03/06 05:28:21;;;;;;;48.30;27.43;;;4.60;99.90;;;;;;5075702;28;20440;-57
2023/03/06 05:30:47;;;;;;;40.13;25.97;;;4.60;99.90;;;;;;5075275;28;20853;-57
2023/03/06 05:33:16;;;;;;;41.73;25.00;;;4.50;99.90;;;;;;5075711;28;20486;-58
2023/03/06 05:35:46;;;;;;;38.77;24.60;;;4.50;99.90;;;;;;5075588;28;20441;-57
2023/03/06 05:38:13;;;;;;;39.27;23.10;;;4.50;99.90;;;;;;5075594;28;20483;-57
2023/03/06 05:40:40;;;;;;;39.57;23.37;;;4.50;99.90;;;;;;5075479;28;20526;-57
2023/03/06 05:43:07;;;;;;;37.47;21.97;;;4.40;99.90;;;;;;5075349;28;20536;-58
2023/03/06 05:45:34;;;;;;;36.43;22.20;;;4.40;99.90;;;;;;5075048;28;20445;-57
2023/03/06 05:48:00;;;;;;;36.40;22.60;;;4.40;99.90;;;;;;5075102;28;20483;-58
2023/03/06 05:50:28;;;;;;;36.10;22.80;;;4.40;99.90;;;;;;5075232;28;20469;-58
2023/03/06 05:52:55;;;;;;;34.60;21.30;;;4.40;99.90;;;;;;5075312;28;20826;-58
2023/03/06 05:55:23;;;;;;;32.87;20.67;;;4.40;99.90;;;;;;5075121;28;20455;-58
2023/03/06 05:57:50;;;;;;;35.93;21.80;;;4.40;99.90;;;;;;5074852;28;20953;-58
2023/03/06 06:00:18;;;;;;;28.77;18.70;;;4.40;99.90;;;;;;5074963;28;20468;-58
2023/03/06 06:02:45;;;;;;;33.97;19.53;;;4.30;99.90;;;;;;5074907;28;20441;-58
2023/03/06 06:05:12;;;;;;;32.50;20.30;;;4.40;99.90;;;;;;5074947;28;20444;-57
2023/03/06 06:07:40;;;;;;;30.57;18.60;;;4.40;99.90;;;;;;5074695;28;20479;-57
2023/03/06 06:10:08;;;;;;;33.00;19.83;;;4.40;99.90;;;;;;5074631;28;20480;-57
2023/03/06 06:12:35;;;;;;;33.27;19.00;;;4.40;99.90;;;;;;5074857;28;20460;-57
2023/03/06 06:15:01;;;;;;;35.70;21.23;;;4.40;99.90;;;;;;5074223;28;20448;-57
2023/03/06 06:17:28;;;;;;;36.10;22.10;;;4.40;99.90;;;;;;5074604;28;20448;-56
2023/03/06 06:19:55;;;;;;;34.40;21.60;;;4.30;99.90;;;;;;5074673;28;20472;-57
2023/03/06 06:22:21;;;;;;;35.70;20.33;;;4.30;99.90;;;;;;5074244;28;20953;-57
2023/03/06 06:24:51;;;;;;;33.30;21.10;;;4.40;99.90;;;;;;5074492;28;20475;-57
2023/03/06 06:27:18;;;;;;;34.70;20.83;;;4.30;99.90;;;;;;5074417;28;20483;-57
2023/03/06 06:29:45;;;;;;;37.23;22.03;;;4.40;99.90;;;;;;5074037;28;20981;-57
2023/03/06 06:32:11;;;;;;;37.17;21.53;;;4.40;99.90;;;;;;5074074;28;20946;-57
2023/03/06 06:34:38;;;;;;;35.63;22.87;;;4.40;99.90;;;;;;5074350;28;20459;-57
2023/03/06 06:37:05;;;;;;;35.60;22.23;;;4.30;99.90;;;;;;5074229;28;20448;-57
2023/03/06 06:39:32;;;;;;;36.43;22.40;;;4.30;99.90;;;;;;5074186;28;20845;-57
2023/03/06 06:42:01;;;;;;;33.50;22.37;;;4.30;99.90;;;;;;5073875;28;20966;-57
2023/03/06 06:44:27;;;;;;;36.07;21.90;;;4.30;99.90;;;;;;5074121;28;20444;-57
2023/03/06 06:46:54;;;;;;;35.70;22.30;;;4.30;99.90;;;;;;5074101;28;20486;-57
2023/03/06 06:49:20;;;;;;;40.40;21.73;;;4.30;99.90;;;;;;5073924;28;20441;-57
2023/03/06 06:51:47;;;;;;;33.70;22.67;;;4.30;99.90;;;;;;5073997;28;20457;-58
2023/03/06 06:54:14;;;;;;;34.37;21.37;;;4.40;99.90;;;;;;5073956;28;20506;-58
2023/03/06 06:56:40;;;;;;;35.07;21.23;;;4.40;99.90;;;;;;5073585;28;20964;-58
2023/03/06 06:59:09;;;;;;;36.17;21.07;;;4.50;99.90;;;;;;5073820;28;20451;-57
2023/03/06 07:01:36;;;;;;;29.50;19.43;;;4.50;99.90;;;;;;5073941;28;20453;-57
2023/03/06 07:04:03;;;;;;;32.40;18.57;;;4.50;99.90;;;;;;5073443;28;20817;-57
2023/03/06 07:06:30;;;;;;;34.67;20.90;;;4.50;99.90;;;;;;5073576;28;20440;-57
2023/03/06 07:08:56;;;;;;;36.73;21.80;;;4.50;99.90;;;;;;5073636;28;20456;-57
2023/03/06 07:11:23;;;;;;;34.87;21.23;;;4.40;99.90;;;;;;5073381;28;20480;-57
2023/03/06 07:13:50;;;;;;;37.67;21.03;;;4.40;99.90;;;;;;5073621;28;20452;-57
2023/03/06 07:16:18;;;;;;;36.13;21.63;;;4.40;99.90;;;;;;5073308;28;20974;-58
2023/03/06 07:18:45;;;;;;;43.00;24.50;;;4.40;99.90;;;;;;5073597;28;20447;-58
2023/03/06 07:21:12;;;;;;;47.07;25.90;;;4.40;99.90;;;;;;5073531;28;20472;-58
2023/03/06 07:23:39;;;;;;;55.33;29.20;;;4.40;99.90;;;;;;5073512;28;20454;-58
2023/03/06 07:26:05;;;;;;;55.30;29.70;;;4.40;99.90;;;;;;5073035;28;20452;-57
2023/03/06 07:28:32;;;;;;;57.23;30.90;;;4.40;99.90;;;;;;5072949;28;20484;-58
2023/03/06 07:30:59;;;;;;;55.90;30.83;;;4.30;99.90;;;;;;5073475;28;20526;-58
2023/03/06 07:33:27;;;;;;;63.67;30.20;;;4.20;99.90;;;;;;5073221;28;20441;-57
2023/03/06 07:35:54;;;;;;;56.80;29.17;;;4.30;99.90;;;;;;5073634;28;20448;-58
2023/03/06 07:38:21;;;;;;;59.23;31.60;;;4.20;99.90;;;;;;5073516;28;20445;-58
2023/03/06 07:40:50;;;;;;;51.53;29.00;;;4.20;99.90;;;;;;5074423;28;20471;-58
2023/03/06 07:43:17;;;;;;;47.93;28.00;;;4.40;99.90;;;;;;5074817;28;20832;-58
2023/03/06 07:45:45;;;;;;;47.20;27.00;;;4.40;99.90;;;;;;5074443;28;20444;-58
2023/03/06 07:48:12;;;;;;;60.30;30.20;;;4.40;99.90;;;;;;5073134;28;20993;-58
2023/03/06 07:50:42;;;;;;;52.30;30.87;;;4.40;99.90;;;;;;5073579;28;20479;-58
2023/03/06 07:53:09;;;;;;;54.30;30.93;;;4.40;99.90;;;;;;5073463;28;20487;-58
2023/03/06 07:55:36;;;;;;;56.30;30.40;;;4.50;99.90;;;;;;5073595;28;20444;-58
2023/03/06 07:58:02;;;;;;;53.57;31.70;;;4.50;99.90;;;;;;5073557;28;20444;-58
2023/03/06 08:00:29;;;;;;;54.33;30.70;;;4.50;99.90;;;;;;5073414;28;20472;-58
2023/03/06 08:02:56;;;;;;;50.70;29.07;;;4.60;99.90;;;;;;5073194;28;20449;-58
2023/03/06 08:05:22;;;;;;;51.13;30.47;;;4.60;99.90;;;;;;5073806;28;20502;-58
2023/03/06 08:07:50;;;;;;;44.03;25.57;;;4.60;99.90;;;;;;5073082;28;21034;-58
2023/03/06 08:10:17;;;;;;;45.23;27.37;;;4.70;99.90;;;;;;5072969;28;20472;-58
2023/03/06 08:12:44;;;;;;;47.93;28.03;;;4.80;99.90;;;;;;5073340;28;20448;-58
2023/03/06 08:15:12;;;;;;;47.33;29.53;;;4.80;99.90;;;;;;5073237;28;20456;-58
2023/03/06 08:17:39;;;;;;;50.87;29.63;;;4.90;99.90;;;;;;5073051;28;20452;-58
2023/03/06 08:20:09;;;;;;;46.07;29.30;;;4.90;99.90;;;;;;5073334;28;20503;-57
2023/03/06 08:22:36;;;;;;;50.40;29.80;;;5.00;99.90;;;;;;5073131;28;20448;-58
2023/03/06 08:25:05;;;;;;;46.00;26.40;;;5.00;99.90;;;;;;5073209;28;20813;-58
2023/03/06 08:27:32;;;;;;;44.70;26.93;;;5.10;99.90;;;;;;5072889;28;20476;-58
2023/03/06 08:29:59;;;;;;;46.40;27.63;;;5.00;99.90;;;;;;5073061;28;20477;-58
2023/03/06 08:32:27;;;;;;;45.50;26.97;;;5.00;99.90;;;;;;5073035;28;20448;-58
2023/03/06 08:34:53;;;;;;;45.57;27.40;;;5.10;99.90;;;;;;5072931;28;20474;-57
2023/03/06 08:37:20;;;;;;;48.30;27.10;;;5.10;99.90;;;;;;5073109;28;20444;-58
2023/03/06 08:39:47;;;;;;;48.40;29.37;;;5.10;99.90;;;;;;5076264;28;20464;-57
2023/03/06 08:42:15;;;;;;;52.03;29.40;;;5.20;99.90;;;;;;5076475;28;20455;-57
2023/03/06 08:44:42;;;;;;;45.33;28.77;;;5.40;99.90;;;;;;5076569;28;20483;-57
2023/03/06 08:47:09;;;;;;;48.67;28.20;;;5.40;99.90;;;;;;5076685;28;20436;-57
2023/03/06 08:49:38;;;;;;;49.20;29.13;;;5.50;99.90;;;;;;5078452;28;20970;-58
2023/03/06 08:52:05;;;;;;;43.67;26.67;;;5.50;99.90;;;;;;5077358;28;20444;-57
2023/03/06 08:54:33;;;;;;;47.33;27.93;;;5.50;99.90;;;;;;5076845;28;20938;-58
2023/03/06 08:56:59;;;;;;;44.87;27.47;;;5.40;99.90;;;;;;5076090;28;20938;-58
2023/03/06 08:59:28;;;;;;;48.37;28.40;;;5.40;99.90;;;;;;5075981;28;20873;-58
2023/03/06 09:01:54;;;;;;;46.57;27.30;;;5.40;99.90;;;;;;5076301;28;20516;-58
2023/03/06 09:04:21;;;;;;;44.03;26.63;;;5.30;99.90;;;;;;5076236;28;20456;-57
2023/03/06 09:06:48;;;;;;;48.03;27.50;;;5.30;99.90;;;;;;5076178;28;20457;-58
2023/03/06 09:09:14;;;;;;;49.37;28.07;;;5.40;99.90;;;;;;5075829;28;20507;-57
2023/03/06 09:11:41;;;;;;;45.43;26.30;;;5.40;99.90;;;;;;5076210;28;20436;-57
2023/03/06 09:14:08;;;;;;;43.03;26.70;;;5.50;99.90;;;;;;5076363;28;20866;-58
2023/03/06 09:16:36;;;;;;;47.10;27.40;;;5.50;99.90;;;;;;5076117;28;20453;-58
2023/03/06 09:19:03;;;;;;;42.87;26.20;;;5.50;99.90;;;;;;5075552;28;20843;-57
2023/03/06 09:21:29;;;;;;;37.40;24.33;;;5.50;99.90;;;;;;5075437;28;20957;-57
2023/03/06 09:23:56;;;;;;;40.20;26.00;;;5.60;99.90;;;;;;5075809;28;20845;-57
2023/03/06 09:26:23;;;;;;;39.10;24.70;;;5.60;99.90;;;;;;5075689;28;20452;-57
2023/03/06 09:28:50;;;;;;;39.30;26.00;;;5.50;99.90;;;;;;5075469;28;20488;-57
2023/03/06 09:31:18;;;;;;;40.30;24.20;;;5.60;99.90;;;;;;5075552;28;20468;-57
2023/03/06 09:33:47;;;;;;;35.23;23.00;;;5.60;99.90;;;;;;5075507;28;20452;-57
2023/03/06 09:36:16;;;;;;;36.43;24.50;;;5.70;99.90;;;;;;5075523;28;20486;-57
2023/03/06 09:38:44;;;;;;;36.97;24.27;;;5.60;99.90;;;;;;5075544;28;20448;-58
2023/03/06 09:41:25;;;;;;;32.80;20.90;;;5.60;99.90;;;;;;5075307;28;20480;-57
2023/03/06 09:43:54;;;;;;;29.30;20.07;;;5.60;99.90;;;;;;5075166;28;20425;-56
2023/03/06 09:46:29;;;;;;;33.83;20.50;;;5.60;99.90;;;;;;5075306;28;20452;-57
2023/03/06 09:49:16;;;;;;;32.83;21.07;;;5.60;99.90;;;;;;5075239;28;20554;-57
2023/03/06 09:51:54;;;;;;;32.13;20.97;;;5.60;99.90;;;;;;5074827;28;20433;-57
2023/03/06 09:54:26;;;;;;;35.40;21.20;;;5.60;99.90;;;;;;5074890;28;20443;-57
2023/03/06 09:56:53;;;;;;;33.77;22.30;;;5.60;99.90;;;;;;5075158;28;20425;-57
2023/03/06 09:59:22;;;;;;;35.63;20.33;;;5.50;99.90;;;;;;5074995;28;20440;-57
2023/03/06 10:01:58;;;;;;;34.23;20.80;;;5.40;99.90;;;;;;5074952;28;20456;-57
2023/03/06 10:04:37;;;;;;;35.07;22.50;;;5.40;99.90;;;;;;5075015;28;20467;-57
2023/03/06 10:07:11;;;;;;;35.00;20.67;;;5.20;99.90;;;;;;5075004;28;20443;-57
2023/03/06 10:09:43;;;;;;;32.00;20.87;;;5.20;99.90;;;;;;5074540;28;20494;-57
2023/03/06 10:12:20;;;;;;;33.47;21.70;;;5.20;99.90;;;;;;5074813;28;20436;-58
2023/03/06 10:14:57;;;;;;;33.13;20.20;;;5.10;99.90;;;;;;5074757;28;20471;-57
2023/03/06 10:17:26;;;;;;;34.07;21.60;;;5.10;99.90;;;;;;5074409;28;20929;-57
2023/03/06 10:19:54;;;;;;;33.63;21.63;;;5.20;99.90;;;;;;5074575;28;20526;-57
2023/03/06 10:22:27;;;;;;;34.17;20.67;;;5.10;99.90;;;;;;5074459;28;20510;-56
2023/03/06 10:24:59;;;;;;;37.30;20.50;;;5.10;99.90;;;;;;5075108;28;20808;-57
2023/03/06 10:27:37;;;;;;;33.97;21.60;;;5.10;99.90;;;;;;5074645;28;20436;-58
2023/03/06 10:30:25;;;;;;;35.03;21.33;;;5.20;99.90;;;;;;5075076;28;20457;-58
2023/03/06 10:32:57;;;;;;;38.63;23.50;;;5.40;99.90;;;;;;5075758;28;20429;-58
2023/03/06 10:35:30;;;;;;;35.70;20.73;;;5.60;99.90;;;;;;5075163;28;20429;-57
2023/03/06 10:38:00;;;;;;;35.83;19.93;;;5.70;99.90;;;;;;5074791;28;20432;-57
2023/03/06 10:40:35;;;;;;;35.20;20.73;;;5.90;99.90;;;;;;5074321;28;20901;-58
2023/03/06 10:43:02;;;;;;;28.70;18.60;;;6.00;99.90;;;;;;5074517;28;20428;-58
2023/03/06 10:45:28;;;;;;;29.07;18.13;;;6.10;99.90;;;;;;5074266;28;20494;-58
2023/03/06 10:48:10;;;;;;;29.47;19.17;;;6.10;99.90;;;;;;5074040;28;20483;-58
2023/03/06 10:50:38;;;;;;;29.33;18.13;;;6.00;99.90;;;;;;5074132;28;20561;-57
2023/03/06 10:53:07;;;;;;;32.60;19.10;;;6.00;99.90;;;;;;5073757;28;20451;-58
2023/03/06 10:55:35;;;;;;;39.33;22.33;;;5.90;99.90;;;;;;5073987;28;20452;-58
2023/03/06 10:58:18;;;;;;;39.00;24.93;;;5.90;99.90;;;;;;5074090;28;20815;-58
2023/03/06 11:00:45;;;;;;;37.90;22.83;;;5.90;99.90;;;;;;5073863;28;20472;-58
2023/03/06 11:03:22;;;;;;;37.47;22.80;;;5.90;99.90;;;;;;5073776;28;20445;-57
2023/03/06 11:06:10;;;;;;;33.73;21.87;;;5.90;99.90;;;;;;5073759;28;20452;-58
2023/03/06 11:08:37;;;;;;;31.50;19.37;;;6.00;99.90;;;;;;5074382;28;20469;-57
2023/03/06 11:11:06;;;;;;;38.10;20.23;;;5.90;99.90;;;;;;5073426;28;20845;-58
2023/03/06 11:13:35;;;;;;;30.77;19.77;;;5.80;99.90;;;;;;5073761;28;20799;-57
2023/03/06 11:16:05;;;;;;;31.40;21.00;;;5.70;99.90;;;;;;5073828;28;20474;-58
2023/03/06 11:18:36;;;;;;;37.17;22.60;;;5.70;99.90;;;;;;5073934;28;20443;-57
2023/03/06 11:21:21;;;;;;;34.13;21.80;;;5.60;99.90;;;;;;5073547;28;20464;-57
2023/03/06 11:23:49;;;;;;;35.33;22.80;;;5.70;99.90;;;;;;5073667;28;20425;-57
2023/03/06 11:26:40;;;;;;;34.03;22.33;;;5.70;99.90;;;;;;5073520;28;20440;-57
2023/03/06 11:29:26;;;;;;;36.37;22.63;;;5.80;99.90;;;;;;5073461;28;20593;-57
2023/03/06 11:31:56;;;;;;;35.77;22.40;;;5.70;99.90;;;;;;5073440;28;20465;-57
2023/03/06 11:34:36;;;;;;;31.13;20.63;;;5.70;99.90;;;;;;5073418;28;20444;-57
2023/03/06 11:37:08;;;;;;;35.20;22.10;;;5.70;99.90;;;;;;5073545;28;20433;-57
2023/03/06 11:39:38;;;;;;;31.80;20.13;;;5.60;99.90;;;;;;5073352;28;20484;-57
2023/03/06 11:42:12;;;;;;;34.83;22.03;;;5.60;99.90;;;;;;5073047;28;20444;-57
2023/03/06 11:44:51;;;;;;;31.27;20.60;;;5.60;99.90;;;;;;5073480;28;20436;-57
2023/03/06 11:47:23;;;;;;;32.13;20.83;;;5.60;99.90;;;;;;5073067;28;20909;-57
2023/03/06 11:49:55;;;;;;;29.57;19.63;;;5.60;99.90;;;;;;5072878;28;20496;-57
2023/03/06 11:52:29;;;;;;;31.80;19.97;;;5.70;99.90;;;;;;5073060;28;20452;-56
2023/03/06 11:54:57;;;;;;;36.73;21.10;;;5.60;99.90;;;;;;5073252;28;20839;-57
2023/03/06 11:57:30;;;;;;;34.80;21.80;;;5.60;99.90;;;;;;5073080;28;20455;-57
2023/03/06 12:00:07;;;;;;;38.73;23.00;;;5.60;99.90;;;;;;5073085;28;20488;-56
2023/03/06 12:02:44;;;;;;;33.77;21.03;;;5.70;99.90;;;;;;5073345;28;20437;-58
2023/03/06 12:05:33;;;;;;;28.80;19.20;;;5.70;99.90;;;;;;5073207;28;20450;-57
2023/03/06 12:08:16;;;;;;;31.63;20.80;;;5.70;99.90;;;;;;5070342;28;20492;-57
2023/03/06 12:10:47;;;;;;;37.03;21.03;;;5.80;99.90;;;;;;5072608;28;20565;-58
2023/03/06 12:13:34;;;;;;;34.33;21.13;;;5.80;99.90;;;;;;5073819;28;20795;-58
2023/03/06 12:16:24;;;;;;;33.67;20.53;;;5.90;99.90;;;;;;5077153;28;20470;-58
2023/03/06 12:19:00;;;;;;;35.57;21.07;;;5.90;99.90;;;;;;5068731;28;20467;-58
2023/03/06 12:21:39;;;;;;;34.03;20.70;;;5.90;99.90;;;;;;5076894;28;20471;-57
2023/03/06 12:24:28;;;;;;;34.33;21.70;;;5.90;99.90;;;;;;5076936;28;20433;-57
2023/03/06 12:27:04;;;;;;;36.97;23.30;;;5.80;99.90;;;;;;5077678;28;20425;-58
2023/03/06 12:29:49;;;;;;;31.67;21.00;;;5.80;99.90;;;;;;5076620;28;20487;-58
2023/03/06 12:32:27;;;;;;;29.50;19.50;;;5.80;99.90;;;;;;5077254;28;20452;-58
2023/03/06 12:35:08;;;;;;;30.50;20.20;;;5.70;99.90;;;;;;5076683;28;20436;-58
2023/03/06 12:37:52;;;;;;;30.67;18.87;;;5.80;99.90;;;;;;5076334;28;20460;-57
2023/03/06 12:40:39;;;;;;;26.70;18.73;;;5.80;99.90;;;;;;5076518;28;20555;-57
2023/03/06 12:43:37;;;;;;;25.80;17.53;;;5.90;99.90;;;;;;5076516;28;20527;-57
2023/03/06 12:46:11;;;;;;;26.40;16.53;;;5.90;99.90;;;;;;5076545;28;20432;-58